sensor_id;sensor_type;location;lat;lon;timestamp;P1;durP1;ratioP1;P2;durP2;ratioP2
5052;SDS011;2545;50.892;5.740;2023-05-20T00:01:27;3.90;;;2.93;;
5052;SDS011;2545;50.892;5.740;2023-05-20T00:03:53;9.10;;;3.30;;
5052;SDS011;2545;50.892;5.740;2023-05-20T00:06:18;10.30;;;3.47;;
5052;SDS011;2545;50.892;5.740;2023-05-20T00:08:43;6.53;;;3.43;;
5052;SDS011;2545;50.892;5.740;2023-05-20T00:11:09;6.37;;;3.93;;
5052;SDS011;2545;50.892;5.740;2023-05-20T00:13:34;8.70;;;3.37;;
5052;SDS011;2545;50.892;5.740;2023-05-20T00:16:00;8.03;;;3.57;;
5052;SDS011;2545;50.892;5.740;2023-05-20T00:18:25;6.20;;;3.17;;
5052;SDS011;2545;50.892;5.740;2023-05-20T00:20:50;8.07;;;3.47;;
5052;SDS011;2545;50.892;5.740;2023-05-20T00:23:18;6.77;;;3.63;;
5052;SDS011;2545;50.892;5.740;2023-05-20T00:25:43;21.13;;;3.97;;
5052;SDS011;2545;50.892;5.740;2023-05-20T00:28:08;8.70;;;3.83;;
5052;SDS011;2545;50.892;5.740;2023-05-20T00:30:33;12.70;;;4.13;;
5052;SDS011;2545;50.892;5.740;2023-05-20T00:32:59;7.33;;;4.47;;
5052;SDS011;2545;50.892;5.740;2023-05-20T00:35:24;6.83;;;5.00;;
5052;SDS011;2545;50.892;5.740;2023-05-20T00:37:49;14.63;;;4.83;;
5052;SDS011;2545;50.892;5.740;2023-05-20T00:40:15;12.50;;;4.23;;
5052;SDS011;2545;50.892;5.740;2023-05-20T00:42:40;9.17;;;5.00;;
5052;SDS011;2545;50.892;5.740;2023-05-20T00:45:06;15.53;;;6.00;;
5052;SDS011;2545;50.892;5.740;2023-05-20T00:47:32;10.47;;;6.50;;
5052;SDS011;2545;50.892;5.740;2023-05-20T00:50:00;11.17;;;6.10;;
5052;SDS011;2545;50.892;5.740;2023-05-20T00:52:26;12.47;;;6.07;;
5052;SDS011;2545;50.892;5.740;2023-05-20T00:54:55;14.10;;;6.07;;
5052;SDS011;2545;50.892;5.740;2023-05-20T00:57:21;15.30;;;6.90;;
5052;SDS011;2545;50.892;5.740;2023-05-20T00:59:46;10.83;;;6.43;;
5052;SDS011;2545;50.892;5.740;2023-05-20T01:02:12;11.70;;;7.10;;
5052;SDS011;2545;50.892;5.740;2023-05-20T01:04:38;10.40;;;6.13;;
5052;SDS011;2545;50.892;5.740;2023-05-20T01:07:04;11.87;;;4.73;;
5052;SDS011;2545;50.892;5.740;2023-05-20T01:09:31;10.20;;;4.50;;
5052;SDS011;2545;50.892;5.740;2023-05-20T01:15:04;8.87;;;4.97;;
5052;SDS011;2545;50.892;5.740;2023-05-20T01:17:32;10.80;;;4.37;;
5052;SDS011;2545;50.892;5.740;2023-05-20T01:20:02;8.80;;;4.43;;
5052;SDS011;2545;50.892;5.740;2023-05-20T01:22:30;9.07;;;4.20;;
5052;SDS011;2545;50.892;5.740;2023-05-20T01:24:55;9.47;;;4.97;;
5052;SDS011;2545;50.892;5.740;2023-05-20T01:27:21;9.40;;;3.77;;
5052;SDS011;2545;50.892;5.740;2023-05-20T01:29:47;7.90;;;4.00;;
5052;SDS011;2545;50.892;5.740;2023-05-20T01:32:33;9.73;;;4.43;;
5052;SDS011;2545;50.892;5.740;2023-05-20T01:35:05;13.70;;;3.97;;
5052;SDS011;2545;50.892;5.740;2023-05-20T01:37:31;5.10;;;3.80;;
5052;SDS011;2545;50.892;5.740;2023-05-20T01:40:00;10.73;;;3.93;;
5052;SDS011;2545;50.892;5.740;2023-05-20T01:42:26;6.10;;;4.40;;
5052;SDS011;2545;50.892;5.740;2023-05-20T01:44:53;14.60;;;4.43;;
5052;SDS011;2545;50.892;5.740;2023-05-20T01:47:18;5.83;;;4.43;;
5052;SDS011;2545;50.892;5.740;2023-05-20T01:49:43;7.13;;;3.80;;
5052;SDS011;2545;50.892;5.740;2023-05-20T01:52:10;8.37;;;4.20;;
5052;SDS011;2545;50.892;5.740;2023-05-20T01:54:35;11.63;;;4.60;;
5052;SDS011;2545;50.892;5.740;2023-05-20T01:57:01;9.50;;;3.23;;
5052;SDS011;2545;50.892;5.740;2023-05-20T01:59:26;5.50;;;3.80;;
5052;SDS011;2545;50.892;5.740;2023-05-20T02:01:52;9.73;;;3.67;;
5052;SDS011;2545;50.892;5.740;2023-05-20T02:04:17;7.37;;;4.23;;
5052;SDS011;2545;50.892;5.740;2023-05-20T02:06:43;12.70;;;4.03;;
5052;SDS011;2545;50.892;5.740;2023-05-20T02:09:08;6.80;;;4.30;;
5052;SDS011;2545;50.892;5.740;2023-05-20T02:11:34;4.83;;;3.80;;
5052;SDS011;2545;50.892;5.740;2023-05-20T02:14:00;6.07;;;3.83;;
5052;SDS011;2545;50.892;5.740;2023-05-20T02:16:25;5.50;;;3.37;;
5052;SDS011;2545;50.892;5.740;2023-05-20T02:18:50;15.33;;;4.20;;
5052;SDS011;2545;50.892;5.740;2023-05-20T02:21:16;11.20;;;3.60;;
5052;SDS011;2545;50.892;5.740;2023-05-20T02:23:42;4.67;;;3.47;;
5052;SDS011;2545;50.892;5.740;2023-05-20T02:26:07;10.50;;;3.60;;
5052;SDS011;2545;50.892;5.740;2023-05-20T02:28:33;6.50;;;3.47;;
5052;SDS011;2545;50.892;5.740;2023-05-20T02:30:58;9.33;;;3.70;;
5052;SDS011;2545;50.892;5.740;2023-05-20T02:33:23;8.63;;;3.57;;
5052;SDS011;2545;50.892;5.740;2023-05-20T02:35:51;5.53;;;3.77;;
5052;SDS011;2545;50.892;5.740;2023-05-20T02:38:17;4.63;;;3.53;;
5052;SDS011;2545;50.892;5.740;2023-05-20T02:40:45;12.03;;;3.50;;
5052;SDS011;2545;50.892;5.740;2023-05-20T02:43:10;7.20;;;3.37;;
5052;SDS011;2545;50.892;5.740;2023-05-20T02:45:36;5.57;;;3.50;;
5052;SDS011;2545;50.892;5.740;2023-05-20T02:48:01;10.80;;;4.83;;
5052;SDS011;2545;50.892;5.740;2023-05-20T02:50:26;6.00;;;3.43;;
5052;SDS011;2545;50.892;5.740;2023-05-20T02:52:52;8.20;;;3.67;;
5052;SDS011;2545;50.892;5.740;2023-05-20T02:55:17;6.83;;;3.60;;
5052;SDS011;2545;50.892;5.740;2023-05-20T02:57:43;6.70;;;3.50;;
5052;SDS011;2545;50.892;5.740;2023-05-20T03:00:08;6.90;;;3.30;;
5052;SDS011;2545;50.892;5.740;2023-05-20T03:02:35;5.37;;;3.10;;
5052;SDS011;2545;50.892;5.740;2023-05-20T03:05:01;8.50;;;3.53;;
5052;SDS011;2545;50.892;5.740;2023-05-20T03:07:26;16.93;;;4.07;;
5052;SDS011;2545;50.892;5.740;2023-05-20T03:09:52;6.70;;;3.60;;
5052;SDS011;2545;50.892;5.740;2023-05-20T03:12:17;4.60;;;3.50;;
5052;SDS011;2545;50.892;5.740;2023-05-20T03:14:43;5.73;;;3.50;;
5052;SDS011;2545;50.892;5.740;2023-05-20T03:17:08;8.03;;;4.10;;
5052;SDS011;2545;50.892;5.740;2023-05-20T03:19:34;6.53;;;3.40;;
5052;SDS011;2545;50.892;5.740;2023-05-20T03:21:59;6.80;;;3.60;;
5052;SDS011;2545;50.892;5.740;2023-05-20T03:24:25;9.67;;;4.20;;
5052;SDS011;2545;50.892;5.740;2023-05-20T03:26:51;7.37;;;4.20;;
5052;SDS011;2545;50.892;5.740;2023-05-20T03:29:16;6.90;;;3.77;;
5052;SDS011;2545;50.892;5.740;2023-05-20T03:31:42;6.70;;;4.00;;
5052;SDS011;2545;50.892;5.740;2023-05-20T03:34:07;7.43;;;3.70;;
5052;SDS011;2545;50.892;5.740;2023-05-20T03:36:32;6.97;;;4.07;;
5052;SDS011;2545;50.892;5.740;2023-05-20T03:38:58;8.53;;;4.20;;
5052;SDS011;2545;50.892;5.740;2023-05-20T03:41:23;7.30;;;3.60;;
5052;SDS011;2545;50.892;5.740;2023-05-20T03:43:48;12.53;;;4.00;;
5052;SDS011;2545;50.892;5.740;2023-05-20T03:46:14;6.50;;;4.37;;
5052;SDS011;2545;50.892;5.740;2023-05-20T03:48:39;5.40;;;3.70;;
5052;SDS011;2545;50.892;5.740;2023-05-20T03:51:05;5.33;;;3.80;;
5052;SDS011;2545;50.892;5.740;2023-05-20T03:53:30;7.90;;;3.90;;
5052;SDS011;2545;50.892;5.740;2023-05-20T03:55:55;5.87;;;4.13;;
5052;SDS011;2545;50.892;5.740;2023-05-20T03:58:21;7.47;;;4.07;;
5052;SDS011;2545;50.892;5.740;2023-05-20T04:00:46;4.30;;;3.27;;
5052;SDS011;2545;50.892;5.740;2023-05-20T04:03:13;7.17;;;4.60;;
5052;SDS011;2545;50.892;5.740;2023-05-20T04:05:38;9.13;;;3.53;;
5052;SDS011;2545;50.892;5.740;2023-05-20T04:08:04;8.87;;;4.03;;
5052;SDS011;2545;50.892;5.740;2023-05-20T04:10:29;8.53;;;4.40;;
5052;SDS011;2545;50.892;5.740;2023-05-20T04:12:56;8.83;;;4.43;;
5052;SDS011;2545;50.892;5.740;2023-05-20T04:15:22;9.33;;;3.73;;
5052;SDS011;2545;50.892;5.740;2023-05-20T04:17:48;9.63;;;4.07;;
5052;SDS011;2545;50.892;5.740;2023-05-20T04:20:14;6.63;;;3.63;;
5052;SDS011;2545;50.892;5.740;2023-05-20T04:22:39;4.60;;;3.60;;
5052;SDS011;2545;50.892;5.740;2023-05-20T04:25:05;10.30;;;4.17;;
5052;SDS011;2545;50.892;5.740;2023-05-20T04:27:31;7.20;;;3.80;;
5052;SDS011;2545;50.892;5.740;2023-05-20T04:29:59;8.90;;;3.97;;
5052;SDS011;2545;50.892;5.740;2023-05-20T04:32:26;5.17;;;3.63;;
5052;SDS011;2545;50.892;5.740;2023-05-20T04:34:51;7.67;;;4.57;;
5052;SDS011;2545;50.892;5.740;2023-05-20T04:37:19;15.30;;;4.23;;
5052;SDS011;2545;50.892;5.740;2023-05-20T04:39:44;6.63;;;3.73;;
5052;SDS011;2545;50.892;5.740;2023-05-20T04:42:12;11.00;;;4.53;;
5052;SDS011;2545;50.892;5.740;2023-05-20T04:44:37;9.27;;;4.43;;
5052;SDS011;2545;50.892;5.740;2023-05-20T04:47:03;10.93;;;4.10;;
5052;SDS011;2545;50.892;5.740;2023-05-20T04:49:31;9.33;;;4.70;;
5052;SDS011;2545;50.892;5.740;2023-05-20T04:51:57;14.93;;;4.50;;
5052;SDS011;2545;50.892;5.740;2023-05-20T04:54:23;10.77;;;4.73;;
5052;SDS011;2545;50.892;5.740;2023-05-20T04:56:49;17.83;;;4.23;;
5052;SDS011;2545;50.892;5.740;2023-05-20T04:59:15;12.10;;;4.77;;
5052;SDS011;2545;50.892;5.740;2023-05-20T05:01:40;9.13;;;4.00;;
5052;SDS011;2545;50.892;5.740;2023-05-20T05:04:06;9.13;;;4.60;;
5052;SDS011;2545;50.892;5.740;2023-05-20T05:06:31;12.73;;;5.10;;
5052;SDS011;2545;50.892;5.740;2023-05-20T05:08:56;8.43;;;4.43;;
5052;SDS011;2545;50.892;5.740;2023-05-20T05:11:22;27.17;;;5.13;;
5052;SDS011;2545;50.892;5.740;2023-05-20T05:13:47;9.30;;;5.23;;
5052;SDS011;2545;50.892;5.740;2023-05-20T05:16:12;11.70;;;5.13;;
5052;SDS011;2545;50.892;5.740;2023-05-20T05:18:38;7.70;;;4.60;;
5052;SDS011;2545;50.892;5.740;2023-05-20T05:21:04;21.73;;;5.03;;
5052;SDS011;2545;50.892;5.740;2023-05-20T05:23:30;10.40;;;4.83;;
5052;SDS011;2545;50.892;5.740;2023-05-20T05:25:56;12.70;;;4.80;;
5052;SDS011;2545;50.892;5.740;2023-05-20T05:28:22;19.57;;;4.70;;
5052;SDS011;2545;50.892;5.740;2023-05-20T05:30:48;15.40;;;5.20;;
5052;SDS011;2545;50.892;5.740;2023-05-20T05:33:14;10.07;;;4.70;;
5052;SDS011;2545;50.892;5.740;2023-05-20T05:35:40;9.50;;;4.90;;
5052;SDS011;2545;50.892;5.740;2023-05-20T05:38:05;9.80;;;4.43;;
5052;SDS011;2545;50.892;5.740;2023-05-20T05:40:31;10.47;;;4.80;;
5052;SDS011;2545;50.892;5.740;2023-05-20T05:42:56;9.77;;;4.97;;
5052;SDS011;2545;50.892;5.740;2023-05-20T05:45:22;11.00;;;5.07;;
5052;SDS011;2545;50.892;5.740;2023-05-20T05:47:47;9.63;;;4.67;;
5052;SDS011;2545;50.892;5.740;2023-05-20T05:50:12;11.50;;;4.20;;
5052;SDS011;2545;50.892;5.740;2023-05-20T05:52:37;10.67;;;4.63;;
5052;SDS011;2545;50.892;5.740;2023-05-20T05:55:03;6.33;;;4.10;;
5052;SDS011;2545;50.892;5.740;2023-05-20T05:57:29;9.17;;;5.30;;
5052;SDS011;2545;50.892;5.740;2023-05-20T05:59:54;10.50;;;4.53;;
5052;SDS011;2545;50.892;5.740;2023-05-20T06:02:20;6.00;;;4.27;;
5052;SDS011;2545;50.892;5.740;2023-05-20T06:04:46;7.83;;;4.60;;
5052;SDS011;2545;50.892;5.740;2023-05-20T06:07:11;8.33;;;4.57;;
5052;SDS011;2545;50.892;5.740;2023-05-20T06:09:37;9.43;;;4.50;;
5052;SDS011;2545;50.892;5.740;2023-05-20T06:12:03;10.93;;;5.20;;
5052;SDS011;2545;50.892;5.740;2023-05-20T06:14:28;6.43;;;4.80;;
5052;SDS011;2545;50.892;5.740;2023-05-20T06:16:54;10.30;;;5.03;;
5052;SDS011;2545;50.892;5.740;2023-05-20T06:19:19;7.00;;;5.07;;
5052;SDS011;2545;50.892;5.740;2023-05-20T06:21:44;7.60;;;4.67;;
5052;SDS011;2545;50.892;5.740;2023-05-20T06:24:10;14.67;;;4.63;;
5052;SDS011;2545;50.892;5.740;2023-05-20T06:26:35;9.43;;;4.97;;
5052;SDS011;2545;50.892;5.740;2023-05-20T06:29:01;15.60;;;4.63;;
5052;SDS011;2545;50.892;5.740;2023-05-20T06:31:28;10.30;;;4.47;;
5052;SDS011;2545;50.892;5.740;2023-05-20T06:33:54;11.90;;;4.40;;
5052;SDS011;2545;50.892;5.740;2023-05-20T06:36:19;8.87;;;4.10;;
5052;SDS011;2545;50.892;5.740;2023-05-20T06:38:45;13.73;;;4.70;;
5052;SDS011;2545;50.892;5.740;2023-05-20T06:41:10;19.43;;;4.57;;
5052;SDS011;2545;50.892;5.740;2023-05-20T06:43:36;10.67;;;4.03;;
5052;SDS011;2545;50.892;5.740;2023-05-20T06:46:01;12.30;;;4.43;;
5052;SDS011;2545;50.892;5.740;2023-05-20T06:48:27;13.07;;;4.90;;
5052;SDS011;2545;50.892;5.740;2023-05-20T06:50:52;8.17;;;4.03;;
5052;SDS011;2545;50.892;5.740;2023-05-20T06:53:17;8.30;;;4.33;;
5052;SDS011;2545;50.892;5.740;2023-05-20T06:55:43;10.07;;;4.23;;
5052;SDS011;2545;50.892;5.740;2023-05-20T06:58:08;5.50;;;4.13;;
5052;SDS011;2545;50.892;5.740;2023-05-20T07:00:33;6.43;;;4.67;;
5052;SDS011;2545;50.892;5.740;2023-05-20T07:03:00;9.60;;;4.63;;
5052;SDS011;2545;50.892;5.740;2023-05-20T07:05:25;8.70;;;4.47;;
5052;SDS011;2545;50.892;5.740;2023-05-20T07:07:52;9.07;;;4.60;;
5052;SDS011;2545;50.892;5.740;2023-05-20T07:10:18;9.20;;;4.73;;
5052;SDS011;2545;50.892;5.740;2023-05-20T07:12:43;6.43;;;4.40;;
5052;SDS011;2545;50.892;5.740;2023-05-20T07:15:09;7.10;;;4.20;;
5052;SDS011;2545;50.892;5.740;2023-05-20T07:17:34;9.90;;;4.90;;
5052;SDS011;2545;50.892;5.740;2023-05-20T07:20:00;10.20;;;3.80;;
5052;SDS011;2545;50.892;5.740;2023-05-20T07:22:25;10.23;;;4.57;;
5052;SDS011;2545;50.892;5.740;2023-05-20T07:24:51;8.33;;;5.00;;
5052;SDS011;2545;50.892;5.740;2023-05-20T07:27:16;10.67;;;5.40;;
5052;SDS011;2545;50.892;5.740;2023-05-20T07:29:41;6.93;;;4.30;;
5052;SDS011;2545;50.892;5.740;2023-05-20T07:32:07;10.43;;;4.83;;
5052;SDS011;2545;50.892;5.740;2023-05-20T07:34:33;7.83;;;3.93;;
5052;SDS011;2545;50.892;5.740;2023-05-20T07:36:58;9.37;;;4.50;;
5052;SDS011;2545;50.892;5.740;2023-05-20T07:39:23;8.50;;;4.10;;
5052;SDS011;2545;50.892;5.740;2023-05-20T07:41:49;5.70;;;4.20;;
5052;SDS011;2545;50.892;5.740;2023-05-20T07:44:14;11.90;;;4.73;;
5052;SDS011;2545;50.892;5.740;2023-05-20T07:46:42;6.80;;;4.70;;
5052;SDS011;2545;50.892;5.740;2023-05-20T07:49:08;7.63;;;3.90;;
5052;SDS011;2545;50.892;5.740;2023-05-20T07:51:34;10.70;;;4.63;;
5052;SDS011;2545;50.892;5.740;2023-05-20T07:53:59;8.10;;;4.80;;
5052;SDS011;2545;50.892;5.740;2023-05-20T07:56:24;7.30;;;4.53;;
5052;SDS011;2545;50.892;5.740;2023-05-20T07:58:51;14.13;;;4.63;;
5052;SDS011;2545;50.892;5.740;2023-05-20T08:01:27;8.77;;;4.50;;
5052;SDS011;2545;50.892;5.740;2023-05-20T08:03:52;6.00;;;4.33;;
5052;SDS011;2545;50.892;5.740;2023-05-20T08:06:18;8.10;;;4.53;;
5052;SDS011;2545;50.892;5.740;2023-05-20T08:08:53;11.73;;;4.60;;
5052;SDS011;2545;50.892;5.740;2023-05-20T08:11:18;6.33;;;4.10;;
5052;SDS011;2545;50.892;5.740;2023-05-20T08:13:45;10.87;;;4.83;;
5052;SDS011;2545;50.892;5.740;2023-05-20T08:16:11;8.63;;;4.57;;
5052;SDS011;2545;50.892;5.740;2023-05-20T08:18:36;5.33;;;4.60;;
5052;SDS011;2545;50.892;5.740;2023-05-20T08:21:02;17.10;;;4.20;;
5052;SDS011;2545;50.892;5.740;2023-05-20T08:23:28;14.10;;;4.53;;
5052;SDS011;2545;50.892;5.740;2023-05-20T08:25:53;11.33;;;5.10;;
5052;SDS011;2545;50.892;5.740;2023-05-20T08:28:19;8.97;;;4.43;;
5052;SDS011;2545;50.892;5.740;2023-05-20T08:30:44;6.43;;;3.70;;
5052;SDS011;2545;50.892;5.740;2023-05-20T08:33:11;7.47;;;3.53;;
5052;SDS011;2545;50.892;5.740;2023-05-20T08:35:37;7.10;;;4.43;;
5052;SDS011;2545;50.892;5.740;2023-05-20T08:38:04;10.33;;;3.97;;
5052;SDS011;2545;50.892;5.740;2023-05-20T08:40:29;5.43;;;3.57;;
5052;SDS011;2545;50.892;5.740;2023-05-20T08:42:55;7.33;;;4.30;;
5052;SDS011;2545;50.892;5.740;2023-05-20T08:45:22;10.03;;;3.97;;
5052;SDS011;2545;50.892;5.740;2023-05-20T08:47:51;8.90;;;4.40;;
5052;SDS011;2545;50.892;5.740;2023-05-20T08:50:17;6.13;;;4.03;;
5052;SDS011;2545;50.892;5.740;2023-05-20T08:52:44;6.07;;;4.30;;
5052;SDS011;2545;50.892;5.740;2023-05-20T08:55:13;5.40;;;4.27;;
5052;SDS011;2545;50.892;5.740;2023-05-20T08:57:40;7.50;;;4.10;;
5052;SDS011;2545;50.892;5.740;2023-05-20T09:00:09;5.60;;;3.97;;
5052;SDS011;2545;50.892;5.740;2023-05-20T09:02:37;11.93;;;4.63;;
5052;SDS011;2545;50.892;5.740;2023-05-20T09:05:03;8.00;;;4.90;;
5052;SDS011;2545;50.892;5.740;2023-05-20T09:07:29;3.93;;;3.57;;
5052;SDS011;2545;50.892;5.740;2023-05-20T09:09:55;6.67;;;4.60;;
5052;SDS011;2545;50.892;5.740;2023-05-20T09:12:21;6.57;;;4.20;;
5052;SDS011;2545;50.892;5.740;2023-05-20T09:14:47;8.00;;;3.93;;
5052;SDS011;2545;50.892;5.740;2023-05-20T09:17:12;5.13;;;3.80;;
5052;SDS011;2545;50.892;5.740;2023-05-20T09:19:38;5.67;;;4.17;;
5052;SDS011;2545;50.892;5.740;2023-05-20T09:22:03;6.80;;;4.67;;
5052;SDS011;2545;50.892;5.740;2023-05-20T09:24:29;7.30;;;4.57;;
5052;SDS011;2545;50.892;5.740;2023-05-20T09:26:54;5.23;;;4.30;;
5052;SDS011;2545;50.892;5.740;2023-05-20T09:29:20;8.63;;;4.60;;
5052;SDS011;2545;50.892;5.740;2023-05-20T09:31:47;6.80;;;4.00;;
5052;SDS011;2545;50.892;5.740;2023-05-20T09:34:12;7.10;;;4.50;;
5052;SDS011;2545;50.892;5.740;2023-05-20T09:36:38;11.37;;;4.37;;
5052;SDS011;2545;50.892;5.740;2023-05-20T09:39:04;9.77;;;4.70;;
5052;SDS011;2545;50.892;5.740;2023-05-20T09:42:08;6.67;;;3.90;;
5052;SDS011;2545;50.892;5.740;2023-05-20T09:44:27;5.30;;;4.40;;
5052;SDS011;2545;50.892;5.740;2023-05-20T09:46:53;9.13;;;4.40;;
5052;SDS011;2545;50.892;5.740;2023-05-20T09:49:20;9.17;;;4.30;;
5052;SDS011;2545;50.892;5.740;2023-05-20T09:51:47;5.60;;;3.73;;
5052;SDS011;2545;50.892;5.740;2023-05-20T09:54:16;5.20;;;3.93;;
5052;SDS011;2545;50.892;5.740;2023-05-20T09:56:43;5.30;;;3.87;;
5052;SDS011;2545;50.892;5.740;2023-05-20T09:59:10;6.83;;;3.87;;
5052;SDS011;2545;50.892;5.740;2023-05-20T10:01:37;4.50;;;3.73;;
5052;SDS011;2545;50.892;5.740;2023-05-20T10:04:03;12.10;;;4.10;;
5052;SDS011;2545;50.892;5.740;2023-05-20T10:17:24;8.67;;;4.07;;
5052;SDS011;2545;50.892;5.740;2023-05-20T10:20:00;11.93;;;4.20;;
5052;SDS011;2545;50.892;5.740;2023-05-20T10:22:26;8.17;;;4.57;;
5052;SDS011;2545;50.892;5.740;2023-05-20T10:25:04;8.87;;;4.20;;
5052;SDS011;2545;50.892;5.740;2023-05-20T10:27:41;6.00;;;3.83;;
5052;SDS011;2545;50.892;5.740;2023-05-20T10:30:14;6.23;;;3.50;;
5052;SDS011;2545;50.892;5.740;2023-05-20T10:32:47;7.30;;;3.67;;
5052;SDS011;2545;50.892;5.740;2023-05-20T10:35:19;15.73;;;4.30;;
5052;SDS011;2545;50.892;5.740;2023-05-20T10:37:46;9.67;;;4.70;;
5052;SDS011;2545;50.892;5.740;2023-05-20T10:40:12;6.53;;;4.00;;
5052;SDS011;2545;50.892;5.740;2023-05-20T10:42:39;6.73;;;4.20;;
5052;SDS011;2545;50.892;5.740;2023-05-20T10:45:05;5.07;;;4.13;;
5052;SDS011;2545;50.892;5.740;2023-05-20T10:47:31;6.53;;;4.43;;
5052;SDS011;2545;50.892;5.740;2023-05-20T10:49:57;4.63;;;3.97;;
5052;SDS011;2545;50.892;5.740;2023-05-20T10:52:22;7.90;;;5.30;;
5052;SDS011;2545;50.892;5.740;2023-05-20T10:57:17;7.93;;;4.67;;
5052;SDS011;2545;50.892;5.740;2023-05-20T10:59:42;6.73;;;5.20;;
5052;SDS011;2545;50.892;5.740;2023-05-20T11:02:08;5.53;;;3.60;;
5052;SDS011;2545;50.892;5.740;2023-05-20T11:04:37;7.90;;;4.37;;
5052;SDS011;2545;50.892;5.740;2023-05-20T11:07:03;8.57;;;4.70;;
5052;SDS011;2545;50.892;5.740;2023-05-20T11:09:28;6.40;;;3.90;;
5052;SDS011;2545;50.892;5.740;2023-05-20T11:11:55;11.80;;;4.33;;
5052;SDS011;2545;50.892;5.740;2023-05-20T11:14:21;9.20;;;4.00;;
5052;SDS011;2545;50.892;5.740;2023-05-20T11:16:49;4.40;;;4.00;;
5052;SDS011;2545;50.892;5.740;2023-05-20T11:19:17;5.33;;;4.07;;
5052;SDS011;2545;50.892;5.740;2023-05-20T11:21:45;7.83;;;4.40;;
5052;SDS011;2545;50.892;5.740;2023-05-20T11:24:11;9.90;;;3.70;;
5052;SDS011;2545;50.892;5.740;2023-05-20T11:26:37;7.00;;;4.23;;
5052;SDS011;2545;50.892;5.740;2023-05-20T11:29:03;5.87;;;4.63;;
5052;SDS011;2545;50.892;5.740;2023-05-20T11:31:32;6.90;;;3.90;;
5052;SDS011;2545;50.892;5.740;2023-05-20T11:34:00;4.67;;;3.90;;
5052;SDS011;2545;50.892;5.740;2023-05-20T11:36:26;10.50;;;4.00;;
5052;SDS011;2545;50.892;5.740;2023-05-20T11:38:58;5.47;;;4.27;;
5052;SDS011;2545;50.892;5.740;2023-05-20T11:41:24;9.00;;;3.73;;
5052;SDS011;2545;50.892;5.740;2023-05-20T11:43:55;5.53;;;4.10;;
5052;SDS011;2545;50.892;5.740;2023-05-20T11:46:22;4.83;;;3.70;;
5052;SDS011;2545;50.892;5.740;2023-05-20T11:48:51;4.67;;;3.87;;
5052;SDS011;2545;50.892;5.740;2023-05-20T11:51:27;7.43;;;4.40;;
5052;SDS011;2545;50.892;5.740;2023-05-20T11:54:03;7.90;;;4.00;;
5052;SDS011;2545;50.892;5.740;2023-05-20T11:56:30;6.43;;;3.67;;
5052;SDS011;2545;50.892;5.740;2023-05-20T11:58:56;7.93;;;4.33;;
5052;SDS011;2545;50.892;5.740;2023-05-20T12:01:22;4.13;;;3.73;;
5052;SDS011;2545;50.892;5.740;2023-05-20T12:03:48;6.28;;;4.25;;
5052;SDS011;2545;50.892;5.740;2023-05-20T12:06:13;6.75;;;3.70;;
5052;SDS011;2545;50.892;5.740;2023-05-20T12:08:38;4.90;;;4.20;;
5052;SDS011;2545;50.892;5.740;2023-05-20T12:11:04;4.63;;;4.20;;
5052;SDS011;2545;50.892;5.740;2023-05-20T12:13:30;6.93;;;3.95;;
5052;SDS011;2545;50.892;5.740;2023-05-20T12:15:55;6.53;;;3.80;;
5052;SDS011;2545;50.892;5.740;2023-05-20T12:18:21;4.28;;;3.88;;
5052;SDS011;2545;50.892;5.740;2023-05-20T12:20:46;9.63;;;4.13;;
5052;SDS011;2545;50.892;5.740;2023-05-20T12:23:11;6.40;;;4.00;;
5052;SDS011;2545;50.892;5.740;2023-05-20T12:25:37;5.78;;;4.18;;
5052;SDS011;2545;50.892;5.740;2023-05-20T12:28:02;7.90;;;3.45;;
5052;SDS011;2545;50.892;5.740;2023-05-20T12:30:27;5.20;;;4.05;;
5052;SDS011;2545;50.892;5.740;2023-05-20T12:32:53;3.67;;;3.22;;
5052;SDS011;2545;50.892;5.740;2023-05-20T12:35:23;8.90;;;4.32;;
5052;SDS011;2545;50.892;5.740;2023-05-20T12:38:01;5.65;;;3.90;;
5052;SDS011;2545;50.892;5.740;2023-05-20T12:40:27;5.85;;;4.03;;
5052;SDS011;2545;50.892;5.740;2023-05-20T12:42:52;5.20;;;3.53;;
5052;SDS011;2545;50.892;5.740;2023-05-20T12:45:18;8.07;;;3.70;;
5052;SDS011;2545;50.892;5.740;2023-05-20T12:47:43;5.72;;;4.55;;
5052;SDS011;2545;50.892;5.740;2023-05-20T12:50:09;5.60;;;4.20;;
5052;SDS011;2545;50.892;5.740;2023-05-20T12:52:34;10.90;;;4.10;;
5052;SDS011;2545;50.892;5.740;2023-05-20T12:54:59;7.10;;;4.10;;
5052;SDS011;2545;50.892;5.740;2023-05-20T12:57:25;5.85;;;3.83;;
5052;SDS011;2545;50.892;5.740;2023-05-20T12:59:50;5.10;;;4.35;;
5052;SDS011;2545;50.892;5.740;2023-05-20T13:02:16;6.32;;;3.80;;
5052;SDS011;2545;50.892;5.740;2023-05-20T13:04:41;6.47;;;4.25;;
5052;SDS011;2545;50.892;5.740;2023-05-20T13:07:07;4.13;;;3.72;;
5052;SDS011;2545;50.892;5.740;2023-05-20T13:09:32;6.18;;;4.78;;
5052;SDS011;2545;50.892;5.740;2023-05-20T13:11:58;6.63;;;3.97;;
5052;SDS011;2545;50.892;5.740;2023-05-20T13:14:25;5.63;;;4.50;;
5052;SDS011;2545;50.892;5.740;2023-05-20T13:16:50;5.67;;;4.20;;
5052;SDS011;2545;50.892;5.740;2023-05-20T13:19:20;6.43;;;4.57;;
5052;SDS011;2545;50.892;5.740;2023-05-20T13:21:46;5.20;;;4.70;;
5052;SDS011;2545;50.892;5.740;2023-05-20T13:24:12;7.80;;;4.60;;
5052;SDS011;2545;50.892;5.740;2023-05-20T13:26:37;11.63;;;4.80;;
5052;SDS011;2545;50.892;5.740;2023-05-20T13:29:03;10.67;;;4.80;;
5052;SDS011;2545;50.892;5.740;2023-05-20T13:31:29;6.83;;;5.30;;
5052;SDS011;2545;50.892;5.740;2023-05-20T13:33:54;9.47;;;5.33;;
5052;SDS011;2545;50.892;5.740;2023-05-20T13:36:23;7.00;;;5.07;;
5052;SDS011;2545;50.892;5.740;2023-05-20T13:38:48;9.10;;;6.07;;
5052;SDS011;2545;50.892;5.740;2023-05-20T13:41:13;9.93;;;4.80;;
5052;SDS011;2545;50.892;5.740;2023-05-20T13:43:39;13.93;;;5.83;;
5052;SDS011;2545;50.892;5.740;2023-05-20T13:46:06;8.20;;;5.40;;
5052;SDS011;2545;50.892;5.740;2023-05-20T13:48:31;7.93;;;5.30;;
5052;SDS011;2545;50.892;5.740;2023-05-20T13:50:57;7.10;;;5.60;;
5052;SDS011;2545;50.892;5.740;2023-05-20T13:53:22;12.20;;;5.30;;
5052;SDS011;2545;50.892;5.740;2023-05-20T13:55:48;8.63;;;5.33;;
5052;SDS011;2545;50.892;5.740;2023-05-20T13:58:13;9.90;;;5.40;;
5052;SDS011;2545;50.892;5.740;2023-05-20T14:00:39;18.60;;;5.80;;
5052;SDS011;2545;50.892;5.740;2023-05-20T14:03:04;8.03;;;5.70;;
5052;SDS011;2545;50.892;5.740;2023-05-20T14:05:32;8.50;;;4.83;;
5052;SDS011;2545;50.892;5.740;2023-05-20T14:07:58;7.07;;;5.10;;
5052;SDS011;2545;50.892;5.740;2023-05-20T14:10:24;6.00;;;4.20;;
5052;SDS011;2545;50.892;5.740;2023-05-20T14:12:53;8.90;;;4.90;;
5052;SDS011;2545;50.892;5.740;2023-05-20T14:15:19;9.40;;;4.63;;
5052;SDS011;2545;50.892;5.740;2023-05-20T14:17:45;5.43;;;4.20;;
5052;SDS011;2545;50.892;5.740;2023-05-20T14:20:11;5.68;;;4.45;;
5052;SDS011;2545;50.892;5.740;2023-05-20T14:22:36;4.40;;;3.97;;
5052;SDS011;2545;50.892;5.740;2023-05-20T14:25:02;8.02;;;4.82;;
5052;SDS011;2545;50.892;5.740;2023-05-20T14:27:28;6.78;;;4.30;;
5052;SDS011;2545;50.892;5.740;2023-05-20T14:29:54;10.25;;;4.70;;
5052;SDS011;2545;50.892;5.740;2023-05-20T14:32:19;4.57;;;4.13;;
5052;SDS011;2545;50.892;5.740;2023-05-20T14:34:44;9.80;;;5.10;;
5052;SDS011;2545;50.892;5.740;2023-05-20T14:37:10;6.87;;;4.27;;
5052;SDS011;2545;50.892;5.740;2023-05-20T14:39:36;8.10;;;4.87;;
5052;SDS011;2545;50.892;5.740;2023-05-20T14:42:01;10.93;;;5.43;;
5052;SDS011;2545;50.892;5.740;2023-05-20T14:44:27;6.00;;;4.80;;
5052;SDS011;2545;50.892;5.740;2023-05-20T14:46:53;5.70;;;3.70;;
5052;SDS011;2545;50.892;5.740;2023-05-20T14:49:18;7.37;;;4.80;;
5052;SDS011;2545;50.892;5.740;2023-05-20T14:51:44;7.07;;;4.33;;
5052;SDS011;2545;50.892;5.740;2023-05-20T14:54:09;12.90;;;4.50;;
5052;SDS011;2545;50.892;5.740;2023-05-20T14:56:35;8.20;;;4.40;;
5052;SDS011;2545;50.892;5.740;2023-05-20T14:59:00;9.10;;;4.00;;
5052;SDS011;2545;50.892;5.740;2023-05-20T15:01:26;6.27;;;4.37;;
5052;SDS011;2545;50.892;5.740;2023-05-20T15:03:51;5.40;;;4.90;;
5052;SDS011;2545;50.892;5.740;2023-05-20T15:06:16;6.87;;;5.90;;
5052;SDS011;2545;50.892;5.740;2023-05-20T15:08:42;9.13;;;5.80;;
5052;SDS011;2545;50.892;5.740;2023-05-20T15:11:07;7.83;;;6.13;;
5052;SDS011;2545;50.892;5.740;2023-05-20T15:13:32;6.70;;;4.90;;
5052;SDS011;2545;50.892;5.740;2023-05-20T15:15:58;8.87;;;5.77;;
5052;SDS011;2545;50.892;5.740;2023-05-20T15:18:23;9.00;;;5.90;;
5052;SDS011;2545;50.892;5.740;2023-05-20T15:20:48;8.67;;;7.00;;
5052;SDS011;2545;50.892;5.740;2023-05-20T15:23:14;11.70;;;5.90;;